createdAt,value
2022-10-01T00:06:21.780Z,22.3
2022-10-01T00:22:05.497Z,22.3
2022-10-01T01:00:38.611Z,22.3
2022-10-01T01:24:07.611Z,22.2
2022-10-01T01:47:23.423Z,22.1
2022-10-01T02:10:26.082Z,22.1
2022-10-01T02:33:55.142Z,22
2022-10-01T03:12:28.459Z,21.8
2022-10-01T03:35:44.352Z,21.7
2022-10-01T04:06:45.553Z,21.6
2022-10-01T04:22:29.392Z,21.5
2022-10-01T05:08:54.671Z,21.4
2022-10-01T05:24:31.916Z,21.3
2022-10-01T05:55:26.554Z,21.3
2022-10-01T06:26:34.389Z,21.3
2022-10-01T06:57:22.459Z,21.3
2022-10-01T07:12:53.125Z,21.2
2022-10-01T07:51:52.722Z,21.3
2022-10-01T08:07:23.285Z,21.3
2022-10-01T08:38:11.230Z,21.3
2022-10-01T09:17:04.280Z,21.4
2022-10-01T09:40:13.668Z,21.2
2022-10-01T10:19:00.493Z,20.9
2022-10-01T10:42:23.387Z,20.6
2022-10-01T11:13:31.291Z,20.4
2022-10-01T11:28:55.431Z,20.4
2022-10-01T12:15:27.183Z,20.6
2022-10-01T12:38:36.462Z,20.7
2022-10-01T13:01:58.947Z,20.8
2022-10-01T13:33:00.150Z,21
2022-10-01T14:03:54.648Z,21.1
2022-10-01T14:34:55.776Z,21.2
2022-10-01T14:58:18.234Z,21.3
2022-10-01T15:37:04.691Z,21.4
2022-10-01T16:00:27.209Z,21.4
2022-10-01T16:31:28.281Z,21.5
2022-10-01T16:46:58.796Z,21.6
2022-10-01T17:17:53.298Z,21.7
2022-10-01T17:56:33.113Z,21.8
2022-10-01T18:12:03.575Z,21.8
2022-10-01T18:43:11.371Z,21.7
2022-10-01T19:14:05.701Z,22
2022-10-01T19:37:34.523Z,22.2
2022-10-01T20:23:59.704Z,22
2022-10-01T20:47:22.222Z,21.7
2022-10-01T21:02:52.702Z,21.7
2022-10-01T21:33:53.626Z,22
2022-10-01T22:04:47.908Z,22.2
2022-10-01T22:12:26.594Z,22.3
2022-10-01T22:35:55.396Z,22.4
2022-10-01T23:14:41.472Z,22.6
2022-10-01T23:30:05.298Z,22.7
